createdAt,value
2018-07-20T00:02:07.698Z,84.40
2018-07-20T00:04:36.286Z,84.70
2018-07-20T00:07:05.060Z,85.40
2018-07-20T00:09:33.627Z,85.00
2018-07-20T00:12:02.210Z,84.50
2018-07-20T00:14:30.898Z,85.00
2018-07-20T00:16:59.932Z,85.20
2018-07-20T00:19:28.548Z,86.00
2018-07-20T00:21:57.394Z,85.90
2018-07-20T00:26:54.232Z,86.20
2018-07-20T00:29:22.814Z,86.50
2018-07-20T00:31:51.358Z,85.90
2018-07-20T00:34:19.846Z,86.50
2018-07-20T00:36:48.346Z,86.40
2018-07-20T00:41:45.983Z,86.00
2018-07-20T00:52:45.178Z,86.30
2018-07-20T00:55:13.690Z,86.20
2018-07-20T00:57:45.201Z,88.30
2018-07-20T01:00:14.286Z,88.80
2018-07-20T01:02:42.782Z,89.50
2018-07-20T01:05:11.276Z,89.50
2018-07-20T01:07:39.810Z,89.10
2018-07-20T01:10:08.368Z,89.10
2018-07-20T01:12:37.364Z,88.80
2018-07-20T01:15:06.133Z,88.70
2018-07-20T01:17:34.632Z,88.50
2018-07-20T01:20:03.290Z,87.70
2018-07-20T01:22:32.164Z,87.70
2018-07-20T01:25:00.637Z,88.10
2018-07-20T01:27:29.140Z,88.10
2018-07-20T01:29:57.678Z,89.00
2018-07-20T01:32:27.334Z,88.80
2018-07-20T01:37:24.146Z,89.90
2018-07-20T01:39:52.639Z,90.20
2018-07-20T01:42:21.146Z,90.20
2018-07-20T01:44:50.744Z,90.20
2018-07-20T01:47:19.360Z,90.10
2018-07-20T01:49:47.895Z,90.30
2018-07-20T01:52:17.505Z,90.50
2018-07-20T01:54:46.050Z,90.60
2018-07-20T02:15:31.841Z,90.60
2018-07-20T02:18:00.418Z,91.90
2018-07-20T02:20:28.906Z,92.20
2018-07-20T02:22:57.422Z,92.30
2018-07-20T02:25:25.958Z,91.90
2018-07-20T02:27:54.563Z,91.70
2018-07-20T02:30:23.078Z,91.50
2018-07-20T02:32:52.278Z,91.50
2018-07-20T02:35:20.802Z,91.70
2018-07-20T02:37:49.318Z,92.10
2018-07-20T02:40:18.854Z,92.20
2018-07-20T02:42:47.359Z,91.70
2018-07-20T02:45:18.209Z,92.00
2018-07-20T02:47:46.770Z,91.80
2018-07-20T03:08:48.777Z,91.80
2018-07-20T03:11:17.494Z,92.20
2018-07-20T03:13:46.039Z,93.30
2018-07-20T03:23:56.008Z,93.40
2018-07-20T03:26:29.609Z,93.20
2018-07-20T03:28:58.165Z,94.10
2018-07-20T03:31:26.666Z,94.30
2018-07-20T03:33:55.158Z,94.50
2018-07-20T03:36:23.713Z,94.70
2018-07-20T03:38:52.209Z,94.40
2018-07-20T03:41:20.716Z,94.40
2018-07-20T03:43:49.547Z,94.00
2018-07-20T03:46:19.329Z,94.00
2018-07-20T03:48:47.818Z,94.40
2018-07-20T03:51:16.552Z,94.10
2018-07-20T03:53:45.118Z,94.60
2018-07-20T03:56:13.623Z,94.70
2018-07-20T03:58:42.148Z,94.60
2018-07-20T04:01:10.674Z,94.50
2018-07-20T04:03:39.166Z,94.40
2018-07-20T04:06:08.360Z,94.90
2018-07-20T04:08:36.894Z,94.90
2018-07-20T04:11:05.369Z,94.10
2018-07-20T04:16:02.130Z,94.50
2018-07-20T04:18:30.631Z,94.60
2018-07-20T04:20:59.149Z,94.30
2018-07-20T04:23:27.622Z,94.50
2018-07-20T04:25:56.102Z,93.90
2018-07-20T04:28:24.990Z,94.00
2018-07-20T04:30:53.533Z,94.10
2018-07-20T04:33:22.094Z,94.00
2018-07-20T04:35:50.695Z,94.00
2018-07-20T04:38:19.218Z,94.10
2018-07-20T04:40:47.901Z,94.00
2018-07-20T04:43:17.495Z,94.00
2018-07-20T04:45:46.017Z,94.10
2018-07-20T04:48:16.305Z,93.80
2018-07-20T04:50:45.335Z,93.80
2018-07-20T05:02:01.459Z,93.00
2018-07-20T05:04:29.994Z,92.20
2018-07-20T05:06:59.142Z,92.30
2018-07-20T05:09:27.723Z,92.40
2018-07-20T05:11:59.190Z,92.10
2018-07-20T05:14:28.354Z,92.30
2018-07-20T05:16:57.017Z,92.00
2018-07-20T05:19:26.651Z,92.10
2018-07-20T05:21:55.404Z,92.10
2018-07-20T05:24:23.905Z,92.10
2018-07-20T05:26:52.453Z,92.10
2018-07-20T05:29:21.073Z,92.10
2018-07-20T05:31:49.617Z,91.70
2018-07-20T05:34:18.131Z,91.40
2018-07-20T05:51:42.173Z,90.20
2018-07-20T05:54:10.837Z,87.80
2018-07-20T05:56:39.510Z,86.70
2018-07-20T05:59:08.025Z,83.30
2018-07-20T06:01:36.561Z,78.60
2018-07-20T06:04:05.228Z,74.30
2018-07-20T06:06:33.735Z,68.00
2018-07-20T06:09:03.008Z,64.70
2018-07-20T06:13:59.690Z,59.10
2018-07-20T06:16:28.244Z,55.30
2018-07-20T06:21:25.093Z,51.50
2018-07-20T06:23:53.666Z,48.30
2018-07-20T06:26:28.319Z,46.30
2018-07-20T06:28:57.422Z,44.30
2018-07-20T06:31:25.911Z,43.70
2018-07-20T06:33:54.397Z,42.40
2018-07-20T06:36:22.894Z,43.10
2018-07-20T06:38:51.626Z,44.20
2018-07-20T06:41:20.947Z,43.90
2018-07-20T06:43:49.970Z,45.00
2018-07-20T06:46:18.506Z,46.00
2018-07-20T06:48:47.049Z,46.70
2018-07-20T07:00:42.087Z,47.70
2018-07-20T07:03:10.570Z,47.70
2018-07-20T07:05:39.029Z,39.50
2018-07-20T07:08:07.570Z,38.20
2018-07-20T07:15:32.555Z,38.80
2018-07-20T07:18:01.202Z,36.50
2018-07-20T07:20:29.701Z,37.50
2018-07-20T07:22:58.677Z,36.50
2018-07-20T07:25:27.210Z,35.00
2018-07-20T07:27:55.728Z,35.00
2018-07-20T07:30:24.238Z,35.90
2018-07-20T07:32:52.736Z,32.90
2018-07-20T07:35:21.237Z,33.20
2018-07-20T07:37:49.756Z,33.00
2018-07-20T07:40:18.774Z,31.40
2018-07-20T07:42:48.230Z,30.60
2018-07-20T07:45:18.104Z,29.60
2018-07-20T07:47:46.577Z,28.90
2018-07-20T08:02:47.150Z,26.20
2018-07-20T08:05:17.033Z,26.20
2018-07-20T08:07:52.031Z,26.20
2018-07-20T08:10:20.705Z,25.10
2018-07-20T08:12:49.318Z,26.00
2018-07-20T08:15:18.812Z,26.60
2018-07-20T08:17:47.345Z,26.80
2018-07-20T08:20:17.499Z,26.50
2018-07-20T08:22:46.859Z,25.70
2018-07-20T08:31:23.582Z,24.40
2018-07-20T08:36:20.298Z,23.20
2018-07-20T08:38:48.810Z,23.50
2018-07-20T08:41:17.630Z,22.90
2018-07-20T08:43:46.086Z,23.20
2018-07-20T08:46:15.613Z,23.00
2018-07-20T08:48:44.186Z,22.50
2018-07-20T08:51:12.710Z,21.50
2018-07-20T08:53:41.789Z,21.80
2018-07-20T08:56:10.320Z,21.40
2018-07-20T08:58:38.818Z,20.90
2018-07-20T09:01:08.572Z,21.70
2018-07-20T09:03:38.053Z,21.30
2018-07-20T09:06:06.511Z,20.80
2018-07-20T09:08:35.065Z,20.40
2018-07-20T09:11:03.710Z,20.00
2018-07-20T09:13:32.377Z,20.00
2018-07-20T09:16:01.311Z,19.60
2018-07-20T09:18:29.824Z,18.30
2018-07-20T09:20:58.585Z,18.50
2018-07-20T09:23:27.194Z,19.50
2018-07-20T09:28:25.657Z,21.40
2018-07-20T09:30:54.322Z,21.40
2018-07-20T09:33:22.822Z,22.10
2018-07-20T09:35:51.348Z,22.40
2018-07-20T09:38:20.097Z,23.30
2018-07-20T09:40:48.633Z,23.90
2018-07-20T09:43:17.446Z,24.40
2018-07-20T09:45:45.976Z,25.50
2018-07-20T09:48:15.590Z,26.40
2018-07-20T09:50:44.850Z,27.00
2018-07-20T09:53:13.467Z,25.80
2018-07-20T09:58:10.271Z,24.30
2018-07-20T10:00:46.798Z,22.80
2018-07-20T10:03:17.326Z,23.30
2018-07-20T10:05:46.210Z,23.90
2018-07-20T10:08:18.988Z,24.30
2018-07-20T10:10:47.670Z,24.90
2018-07-20T10:13:17.946Z,23.80
2018-07-20T10:15:46.474Z,23.90
2018-07-20T10:37:17.818Z,24.20
2018-07-20T10:39:46.486Z,25.60
2018-07-20T10:42:17.286Z,28.20
2018-07-20T10:44:45.817Z,28.80
2018-07-20T11:09:49.560Z,30.10
2018-07-20T11:12:18.085Z,31.90
2018-07-20T11:14:46.654Z,31.70
2018-07-20T11:29:43.177Z,31.20
2018-07-20T11:32:14.682Z,30.10
2018-07-20T11:34:43.965Z,30.70
2018-07-20T11:37:13.666Z,30.80
2018-07-20T11:39:42.197Z,31.00
2018-07-20T11:42:10.754Z,30.50
2018-07-20T11:49:36.359Z,30.70
2018-07-20T11:52:04.941Z,31.10
2018-07-20T11:54:33.420Z,30.70
2018-07-20T11:59:30.717Z,31.10
2018-07-20T12:01:59.283Z,32.00
2018-07-20T12:04:27.754Z,33.30
2018-07-20T12:06:56.965Z,33.00
2018-07-20T12:09:25.571Z,33.10
2018-07-20T12:11:54.943Z,33.70
2018-07-20T12:14:23.538Z,33.60
2018-07-20T12:16:53.505Z,33.20
2018-07-20T12:19:22.018Z,33.60
2018-07-20T12:21:50.521Z,34.30
2018-07-20T12:24:19.023Z,33.70
2018-07-20T12:26:47.635Z,31.60
2018-07-20T12:29:17.715Z,32.00
2018-07-20T12:31:46.597Z,30.90
2018-07-20T12:53:12.911Z,31.80
2018-07-20T12:55:41.975Z,33.20
2018-07-20T12:58:10.543Z,33.70
2018-07-20T13:00:39.207Z,34.60
2018-07-20T13:03:07.731Z,34.30
2018-07-20T13:05:36.486Z,34.20
2018-07-20T13:08:06.802Z,32.90
2018-07-20T13:10:35.388Z,33.20
2018-07-20T13:13:05.075Z,33.40
2018-07-20T13:15:35.887Z,33.00
2018-07-20T13:18:04.795Z,34.00
2018-07-20T13:20:33.613Z,33.90
2018-07-20T13:23:02.556Z,33.70
2018-07-20T13:25:31.435Z,33.50
2018-07-20T13:28:00.095Z,32.20
2018-07-20T13:30:29.693Z,33.60
2018-07-20T13:32:58.217Z,32.50
2018-07-20T13:35:26.802Z,33.50
2018-07-20T13:37:56.067Z,32.40
2018-07-20T13:40:24.573Z,32.80
2018-07-20T13:42:53.692Z,34.00
2018-07-20T13:45:22.982Z,34.10
2018-07-20T13:47:51.575Z,33.80
2018-07-20T13:50:20.109Z,34.30
2018-07-20T13:52:48.683Z,34.10
2018-07-20T13:55:17.958Z,33.70
2018-07-20T13:57:46.521Z,33.00
2018-07-20T14:00:16.372Z,34.10
2018-07-20T14:02:44.943Z,33.70
2018-07-20T14:05:13.562Z,32.60
2018-07-20T14:07:42.318Z,33.90
2018-07-20T14:10:12.919Z,34.00
2018-07-20T14:12:41.615Z,33.50
2018-07-20T14:15:11.963Z,33.30
2018-07-20T14:17:40.670Z,33.10
2018-07-20T14:20:09.203Z,33.30
2018-07-20T14:22:37.956Z,33.00
2018-07-20T14:25:06.522Z,33.10
2018-07-20T14:27:38.511Z,33.20
2018-07-20T14:30:07.122Z,33.30
2018-07-20T14:32:40.277Z,33.50
2018-07-20T14:35:08.937Z,33.50
2018-07-20T14:37:37.478Z,33.80
2018-07-20T14:40:07.181Z,33.30
2018-07-20T14:45:04.800Z,33.10
2018-07-20T14:47:33.286Z,34.00
2018-07-20T14:50:01.871Z,35.40
2018-07-20T14:52:30.414Z,34.90
2018-07-20T14:54:58.948Z,34.40
2018-07-20T14:57:27.498Z,34.40
2018-07-20T14:59:56.040Z,34.90
2018-07-20T15:02:25.402Z,35.30
2018-07-20T15:04:54.424Z,35.30
2018-07-20T15:07:22.929Z,37.30
2018-07-20T15:09:51.425Z,36.60
2018-07-20T15:14:48.346Z,33.50
2018-07-20T15:17:19.341Z,32.40
2018-07-20T15:19:47.994Z,31.70
2018-07-20T15:22:16.590Z,34.80
2018-07-20T15:27:16.017Z,33.50
2018-07-20T15:29:44.882Z,33.70
2018-07-20T15:32:13.465Z,33.50
2018-07-20T15:34:42.352Z,34.10
2018-07-20T15:39:43.066Z,34.70
2018-07-20T15:42:11.919Z,33.40
2018-07-20T15:44:40.468Z,34.30
2018-07-20T15:47:12.438Z,33.40
2018-07-20T15:49:42.231Z,33.90
2018-07-20T15:54:39.853Z,32.90
2018-07-20T15:57:08.722Z,33.60
2018-07-20T15:59:37.618Z,34.90
2018-07-20T16:02:06.559Z,34.30
2018-07-20T16:04:36.104Z,33.10
2018-07-20T16:07:04.806Z,33.90
2018-07-20T16:09:33.402Z,33.30
2018-07-20T16:14:33.478Z,33.90
2018-07-20T16:17:02.110Z,34.30
2018-07-20T16:19:31.570Z,34.50
2018-07-20T16:22:01.142Z,34.30
2018-07-20T16:24:29.874Z,34.30
2018-07-20T16:26:58.883Z,33.80
2018-07-20T16:29:27.423Z,34.20
2018-07-20T16:31:56.127Z,33.30
2018-07-20T16:34:25.026Z,34.10
2018-07-20T16:36:53.637Z,33.80
2018-07-20T16:39:23.589Z,34.00
2018-07-20T16:41:52.130Z,34.50
2018-07-20T16:44:21.077Z,34.20
2018-07-20T16:46:49.702Z,33.30
2018-07-20T16:49:18.378Z,33.80
2018-07-20T16:54:15.939Z,33.70
2018-07-20T16:56:44.820Z,33.60
2018-07-20T16:59:13.669Z,33.90
2018-07-20T17:01:43.125Z,34.10
2018-07-20T17:04:11.713Z,34.40
2018-07-20T17:06:40.294Z,35.10
2018-07-20T17:09:14.211Z,34.20
2018-07-20T17:11:42.802Z,34.90
2018-07-20T17:14:11.463Z,34.90
2018-07-20T17:16:40.397Z,35.10
2018-07-20T17:19:09.389Z,35.60
2018-07-20T17:21:38.759Z,36.30
2018-07-20T17:24:07.488Z,36.20
2018-07-20T17:26:36.201Z,36.60
2018-07-20T17:29:07.024Z,35.80
2018-07-20T17:31:37.219Z,36.40
2018-07-20T17:34:05.746Z,37.20
2018-07-20T17:36:34.279Z,37.20
2018-07-20T17:39:03.574Z,37.50
2018-07-20T17:44:00.333Z,37.30
2018-07-20T17:48:57.167Z,38.80
2018-07-20T17:51:25.767Z,38.80
2018-07-20T17:56:22.889Z,39.60
2018-07-20T18:01:20.525Z,39.30
2018-07-20T18:03:49.103Z,39.90
2018-07-20T18:06:17.607Z,40.60
2018-07-20T18:08:48.227Z,41.90
2018-07-20T18:11:17.518Z,41.50
2018-07-20T18:38:08.565Z,41.70
2018-07-20T18:40:38.903Z,47.00
2018-07-20T18:43:07.487Z,47.70
2018-07-20T18:48:04.512Z,47.60
2018-07-20T18:50:33.090Z,47.70
2018-07-20T18:53:08.293Z,48.10
2018-07-20T18:55:36.930Z,48.10
2018-07-20T18:58:06.826Z,48.50
2018-07-20T19:00:35.578Z,47.70
2018-07-20T19:03:04.286Z,47.60
2018-07-20T19:17:03.995Z,47.70
2018-07-20T19:19:32.565Z,48.30
2018-07-20T19:22:01.124Z,48.80
2018-07-20T19:24:29.645Z,49.00
2018-07-20T19:26:58.689Z,49.40
2018-07-20T19:31:56.261Z,50.00
2018-07-20T19:34:24.934Z,50.60
2018-07-20T19:36:54.067Z,50.30
2018-07-20T19:39:22.638Z,50.30
2018-07-20T19:41:51.186Z,50.40
2018-07-20T19:44:23.006Z,50.10
2018-07-20T19:46:52.038Z,49.40
2018-07-20T19:49:21.381Z,50.00
2018-07-20T19:51:50.077Z,50.40
2018-07-20T19:54:18.666Z,51.10
2018-07-20T19:56:47.254Z,51.90
2018-07-20T19:59:17.671Z,52.40
2018-07-20T20:01:46.837Z,53.00
2018-07-20T20:13:54.592Z,53.00
2018-07-20T20:16:23.105Z,52.50
2018-07-20T20:18:51.618Z,52.80
2018-07-20T20:21:20.202Z,53.10
2018-07-20T20:23:48.753Z,53.30
2018-07-20T20:28:50.374Z,52.70
2018-07-20T20:31:19.569Z,53.10
2018-07-20T20:33:48.170Z,53.10
2018-07-20T20:36:17.555Z,53.70
2018-07-20T20:38:46.148Z,53.90
2018-07-20T20:53:45.910Z,54.80
2018-07-20T20:56:16.731Z,62.60
2018-07-20T20:58:45.434Z,62.20
2018-07-20T21:13:41.026Z,58.90
2018-07-20T21:16:09.605Z,73.10
2018-07-20T21:18:38.117Z,75.10
2018-07-20T21:21:06.665Z,78.20
2018-07-20T21:23:35.315Z,82.10
2018-07-20T21:26:04.177Z,82.60
2018-07-20T21:28:32.807Z,87.90
2018-07-20T21:31:02.104Z,90.30
2018-07-20T21:33:35.192Z,90.70
2018-07-20T21:36:03.970Z,92.00
2018-07-20T21:38:32.531Z,93.80
2018-07-20T21:41:01.071Z,93.70
2018-07-20T21:43:29.766Z,96.80
2018-07-20T21:45:58.258Z,96.90
2018-07-20T21:48:26.874Z,97.90
2018-07-20T21:50:55.822Z,99.90
2018-07-20T21:53:24.398Z,99.90
2018-07-20T21:55:52.986Z,99.90
2018-07-20T21:58:21.783Z,99.90
2018-07-20T22:00:50.455Z,99.90
2018-07-20T22:03:18.965Z,99.90
2018-07-20T22:08:16.772Z,99.90
2018-07-20T22:10:45.268Z,99.90
2018-07-20T22:13:14.827Z,99.90
2018-07-20T22:15:43.489Z,99.90
2018-07-20T22:18:12.005Z,99.90
2018-07-20T22:20:40.537Z,99.90
2018-07-20T22:23:09.149Z,99.90
2018-07-20T22:25:38.082Z,99.90
2018-07-20T22:28:06.723Z,99.90
2018-07-20T22:30:35.266Z,99.90
2018-07-20T22:33:04.750Z,99.90
2018-07-20T22:35:34.295Z,99.90
2018-07-20T22:38:02.946Z,99.90
2018-07-20T22:40:31.552Z,99.90
2018-07-20T22:43:00.196Z,99.90
2018-07-20T22:45:28.832Z,99.90
2018-07-20T22:47:57.383Z,99.90
2018-07-20T22:50:25.950Z,99.90
2018-07-20T22:52:54.489Z,99.90
